Time;durP1;ratioP1;P1;durP2;ratioP2;P2;SDS_P1;SDS_P2;PMS_P1;PMS_P2;Temp;Humidity;BMP_temperature;BMP_pressure;BME280_temperature;BME280_humidity;BME280_pressure;Samples;Min_cycle;Max_cycle;Signal;HPM_P1;HPM_P2
2023/08/10 00:00:45;;;;;;;1.13;0.70;;;;;14.50;97166.00;;;;5007864;28;20216;-86
2023/08/10 00:03:36;;;;;;;3.43;0.60;;;;;14.10;97163.00;;;;5026515;28;20209;-87
2023/08/10 00:06:25;;;;;;;1.10;1.10;;;;;14.20;97168.00;;;;5025837;28;20205;-87
2023/08/10 00:09:14;;;;;;;0.60;0.60;;;;;14.10;97168.00;;;;5026444;28;20197;-87
2023/08/10 00:12:03;;;;;;;0.87;0.70;;;;;13.80;97154.00;;;;5017313;28;20197;-87
2023/08/10 00:14:52;;;;;;;0.50;0.50;;;;;13.80;97165.00;;;;5022210;28;20229;-86
2023/08/10 00:17:41;;;;;;;0.80;0.60;;;;;14.10;97175.00;;;;5020781;28;20201;-86
2023/08/10 00:20:32;;;;;;;0.97;0.73;;;;;14.20;97182.00;;;;5025482;28;20221;-86
2023/08/10 00:23:21;;;;;;;1.73;0.63;;;;;14.00;97172.00;;;;5023993;28;20197;-86
2023/08/10 00:26:10;;;;;;;4.57;1.00;;;;;13.80;97171.00;;;;5026476;28;20212;-86
2023/08/10 00:28:59;;;;;;;0.83;0.70;;;;;13.90;97165.00;;;;5015846;28;20194;-87
2023/08/10 00:31:48;;;;;;;2.10;0.70;;;;;13.70;97183.00;;;;5016982;28;20258;-88
2023/08/10 00:34:37;;;;;;;0.83;0.63;;;;;13.90;97187.00;;;;5013922;28;20229;-87
2023/08/10 00:37:28;;;;;;;0.73;0.53;;;;;13.40;97183.00;;;;5025611;28;20218;-86
2023/08/10 00:40:17;;;;;;;0.60;0.60;;;;;13.90;97166.00;;;;5025232;28;20620;-85
2023/08/10 00:43:06;;;;;;;1.50;0.90;;;;;14.10;97183.00;;;;5027213;28;20593;-85
2023/08/10 00:45:55;;;;;;;2.00;1.10;;;;;14.10;97173.00;;;;5017900;28;20216;-87
2023/08/10 00:48:44;;;;;;;1.53;0.93;;;;;14.20;97173.00;;;;5008640;28;20662;-86
2023/08/10 00:51:33;;;;;;;2.20;0.90;;;;;14.20;97169.00;;;;5025403;28;20212;-87
2023/08/10 00:54:24;;;;;;;4.37;1.00;;;;;13.90;97165.00;;;;5024406;28;20312;-86
2023/08/10 00:57:13;;;;;;;3.10;1.40;;;;;13.50;97164.00;;;;5025620;28;20208;-86
2023/08/10 01:00:05;;;;;;;4.47;2.93;;;;;13.40;97155.00;;;;5026766;28;20217;-87
2023/08/10 01:02:55;;;;;;;4.70;3.03;;;;;13.40;97161.00;;;;5012138;28;20208;-87
2023/08/10 01:05:51;;;;;;;2.03;1.47;;;;;13.20;97157.00;;;;5005307;28;20253;-88
2023/08/10 01:08:45;;;;;;;3.97;2.27;;;;;13.50;97163.00;;;;5010906;28;20656;-88
2023/08/10 01:11:40;;;;;;;3.43;2.23;;;;;13.70;97168.00;;;;5024977;28;20695;-88
2023/08/10 01:14:36;;;;;;;2.70;2.37;;;;;13.70;97175.00;;;;5022149;28;20730;-87
2023/08/10 01:17:29;;;;;;;3.27;2.63;;;;;13.10;97182.00;;;;5015088;28;20589;-88
2023/08/10 01:20:20;;;;;;;4.27;3.03;;;;;13.40;97176.00;;;;5013437;28;20229;-87
2023/08/10 01:23:15;;;;;;;3.90;2.73;;;;;13.80;97170.00;;;;5020832;28;20201;-87
2023/08/10 01:26:06;;;;;;;2.07;1.87;;;;;14.00;97163.00;;;;5012516;28;20212;-87
2023/08/10 01:28:56;;;;;;;4.00;2.67;;;;;13.40;97164.00;;;;5010090;28;20212;-87
2023/08/10 01:31:46;;;;;;;4.53;3.43;;;;;13.20;97165.00;;;;5014171;28;20201;-87
2023/08/10 01:34:35;;;;;;;3.87;3.10;;;;;13.40;97176.00;;;;5012827;28;20230;-88
2023/08/10 01:37:24;;;;;;;4.97;2.70;;;;;13.60;97178.00;;;;5011762;28;20596;-88
2023/08/10 01:40:13;;;;;;;4.07;2.83;;;;;13.50;97184.00;;;;5012220;28;20232;-87
2023/08/10 01:43:04;;;;;;;4.33;3.23;;;;;13.80;97182.00;;;;5006256;28;20724;-88
2023/08/10 01:45:56;;;;;;;2.43;2.23;;;;;14.00;97180.00;;;;5000659;28;20229;-87
2023/08/10 01:48:45;;;;;;;2.33;2.03;;;;;14.00;97172.00;;;;5005570;28;20194;-87
2023/08/10 01:51:36;;;;;;;3.73;2.23;;;;;14.10;97178.00;;;;5011563;28;20212;-88
2023/08/10 01:54:26;;;;;;;2.70;2.17;;;;;13.90;97191.00;;;;5009671;28;20227;-87
2023/08/10 01:57:15;;;;;;;3.57;1.97;;;;;13.80;97185.00;;;;5009307;28;20218;-88
2023/08/10 02:00:07;;;;;;;2.73;1.90;;;;;13.80;97182.00;;;;5012105;28;20226;-88
2023/08/10 02:02:56;;;;;;;2.77;2.10;;;;;14.00;97183.00;;;;5010311;28;20211;-88
2023/08/10 02:05:45;;;;;;;5.47;2.33;;;;;13.90;97181.00;;;;5007888;28;20250;-89
2023/08/10 02:08:35;;;;;;;3.60;1.93;;;;;13.90;97194.00;;;;5016172;28;20522;-88
2023/08/10 02:11:24;;;;;;;2.60;1.87;;;;;13.60;97194.00;;;;5015780;28;20197;-88
2023/08/10 02:14:13;;;;;;;3.27;2.10;;;;;13.70;97198.00;;;;5014950;28;20258;-88
2023/08/10 02:17:03;;;;;;;3.03;2.13;;;;;14.00;97194.00;;;;5013177;28;20197;-87
2023/08/10 02:19:52;;;;;;;3.10;2.13;;;;;14.10;97193.00;;;;5016088;28;20228;-87
2023/08/10 02:22:42;;;;;;;4.17;1.60;;;;;14.00;97191.00;;;;5008713;28;20196;-87
2023/08/10 02:25:31;;;;;;;1.70;1.23;;;;;14.20;97203.00;;;;5008583;28;20592;-87
2023/08/10 02:28:20;;;;;;;3.17;1.90;;;;;14.00;97197.00;;;;5008506;28;20206;-87
2023/08/10 02:31:09;;;;;;;3.77;2.03;;;;;13.30;97206.00;;;;5016992;28;20208;-87
2023/08/10 02:34:00;;;;;;;2.67;1.87;;;;;13.50;97204.00;;;;5024807;28;20221;-87
2023/08/10 02:36:49;;;;;;;4.70;2.13;;;;;13.70;97219.00;;;;5018229;28;20209;-87
2023/08/10 02:39:38;;;;;;;2.67;2.00;;;;;14.00;97219.00;;;;5028455;28;20209;-87
2023/08/10 02:42:27;;;;;;;2.50;1.70;;;;;14.10;97223.00;;;;5026635;28;20203;-87
2023/08/10 02:45:16;;;;;;;2.40;1.90;;;;;14.00;97226.00;;;;5024284;28;20228;-87
2023/08/10 02:48:05;;;;;;;1.57;1.47;;;;;14.10;97234.00;;;;5013294;28;20651;-87
2023/08/10 02:50:56;;;;;;;2.07;1.57;;;;;14.20;97241.00;;;;5018981;28;20255;-87
2023/08/10 02:53:46;;;;;;;3.77;2.13;;;;;14.00;97240.00;;;;5012605;28;20499;-86
2023/08/10 02:56:35;;;;;;;2.47;1.63;;;;;14.20;97230.00;;;;5011090;28;20483;-87
2023/08/10 02:59:24;;;;;;;2.60;1.90;;;;;14.30;97238.00;;;;5010745;28;20590;-87
2023/08/10 03:02:17;;;;;;;2.27;1.77;;;;;14.30;97243.00;;;;5027731;28;20224;-87
2023/08/10 03:05:07;;;;;;;3.00;1.73;;;;;14.10;97230.00;;;;5021769;28;20600;-87
2023/08/10 03:07:57;;;;;;;5.80;3.10;;;;;14.40;97240.00;;;;5019438;28;20204;-87
2023/08/10 03:10:46;;;;;;;4.63;2.50;;;;;14.10;97240.00;;;;5016977;28;20197;-87
2023/08/10 03:13:35;;;;;;;2.17;1.70;;;;;13.90;97248.00;;;;5026195;28;20210;-88
2023/08/10 03:16:24;;;;;;;3.37;1.80;;;;;14.10;97248.00;;;;5024572;28;20686;-88
2023/08/10 03:19:13;;;;;;;5.23;1.53;;;;;14.10;97249.00;;;;5027079;28;20205;-87
2023/08/10 03:22:03;;;;;;;1.50;1.40;;;;;14.00;97248.00;;;;5027732;28;20221;-87
2023/08/10 03:24:53;;;;;;;4.70;2.27;;;;;14.10;97262.00;;;;5017796;28;20221;-88
2023/08/10 03:27:42;;;;;;;2.63;1.67;;;;;14.00;97258.00;;;;5018520;28;20448;-88
2023/08/10 03:30:32;;;;;;;3.75;1.90;;;;;13.80;97261.00;;;;5025300;28;20415;-87
2023/08/10 03:33:21;;;;;;;3.60;1.30;;;;;14.00;97248.00;;;;5026946;28;20205;-88
2023/08/10 03:36:10;;;;;;;3.33;1.43;;;;;14.00;97254.00;;;;5028259;28;20224;-87
2023/08/10 03:38:59;;;;;;;1.60;1.50;;;;;14.10;97255.00;;;;5023548;28;20201;-87
2023/08/10 03:41:50;;;;;;;1.80;1.40;;;;;14.10;97257.00;;;;5016063;28;20245;-88
2023/08/10 03:44:39;;;;;;;5.20;1.57;;;;;14.10;97262.00;;;;5022644;28;20706;-88
2023/08/10 03:47:28;;;;;;;3.30;1.50;;;;;13.90;97270.00;;;;5018294;28;20217;-90
2023/08/10 03:50:17;;;;;;;2.00;1.70;;;;;14.00;97259.00;;;;5018418;28;20205;-88
2023/08/10 03:53:07;;;;;;;2.77;1.90;;;;;14.20;97247.00;;;;5014958;28;20205;-88
2023/08/10 03:55:56;;;;;;;1.60;1.40;;;;;14.20;97259.00;;;;5018446;28;20690;-88
2023/08/10 03:58:46;;;;;;;1.47;1.37;;;;;13.90;97270.00;;;;5027973;28;20197;-88
2023/08/10 04:01:35;;;;;;;1.60;1.50;;;;;14.00;97261.00;;;;5026498;28;20226;-88
2023/08/10 04:04:24;;;;;;;3.93;1.67;;;;;13.90;97254.00;;;;5026386;28;20225;-87
2023/08/10 04:07:13;;;;;;;1.73;1.50;;;;;13.80;97239.00;;;;5016291;28;20206;-88
2023/08/10 04:10:03;;;;;;;1.60;1.43;;;;;13.60;97241.00;;;;5014938;28;20232;-88
2023/08/10 04:12:52;;;;;;;2.70;2.03;;;;;14.00;97253.00;;;;5022153;28;20205;-87
2023/08/10 04:15:42;;;;;;;4.13;1.87;;;;;14.20;97260.00;;;;5020693;28;20217;-87
2023/08/10 04:18:31;;;;;;;1.70;1.60;;;;;14.10;97261.00;;;;5021001;28;20206;-87
2023/08/10 04:21:21;;;;;;;2.07;1.17;;;;;14.00;97248.00;;;;5026429;28;20221;-87
2023/08/10 04:24:10;;;;;;;1.87;1.60;;;;;13.80;97255.00;;;;5025930;28;20232;-88
2023/08/10 04:26:59;;;;;;;3.47;1.20;;;;;13.80;97239.00;;;;5014319;28;20209;-88
2023/08/10 04:29:48;;;;;;;1.70;1.60;;;;;14.00;97233.00;;;;5020489;28;20204;-88
2023/08/10 04:32:38;;;;;;;2.90;1.80;;;;;14.20;97235.00;;;;5026364;28;20194;-88
2023/08/10 04:35:27;;;;;;;1.40;1.30;;;;;14.40;97228.00;;;;5026556;28;20243;-87
2023/08/10 04:38:16;;;;;;;1.90;1.80;;;;;14.60;97234.00;;;;5021339;28;20201;-88
2023/08/10 04:41:05;;;;;;;2.97;1.80;;;;;14.50;97238.00;;;;5020571;28;20229;-88
2023/08/10 04:43:54;;;;;;;4.77;1.87;;;;;14.60;97253.00;;;;5011978;28;20206;-87
2023/08/10 04:46:44;;;;;;;3.13;1.50;;;;;14.50;97267.00;;;;5012964;28;20209;-88
2023/08/10 04:49:34;;;;;;;1.47;1.37;;;;;14.40;97255.00;;;;5018904;28;20575;-87
2023/08/10 04:52:23;;;;;;;2.37;1.37;;;;;14.40;97267.00;;;;5025605;28;20201;-88
2023/08/10 04:55:13;;;;;;;2.23;1.60;;;;;14.50;97266.00;;;;5025068;28;20217;-88
2023/08/10 04:58:02;;;;;;;3.20;1.73;;;;;14.60;97261.00;;;;5008060;28;20202;-89
2023/08/10 05:00:52;;;;;;;2.10;1.30;;;;;14.50;97262.00;;;;5022763;28;20691;-89
2023/08/10 05:03:41;;;;;;;1.83;1.70;;;;;15.10;97269.00;;;;5005098;28;20587;-87
2023/08/10 05:06:34;;;;;;;3.03;2.00;;;;;15.20;97271.00;;;;5026891;28;20202;-88
2023/08/10 05:09:23;;;;;;;3.73;1.70;;;;;15.30;97277.00;;;;5023335;28;20690;-88
2023/08/10 05:12:12;;;;;;;8.77;2.47;;;;;15.50;97280.00;;;;5017643;28;20464;-88
2023/08/10 05:15:01;;;;;;;3.53;3.07;;;;;15.60;97284.00;;;;5018523;28;20221;-87
2023/08/10 05:17:50;;;;;;;2.67;2.30;;;;;15.30;97297.00;;;;5023151;28;20201;-90
2023/08/10 05:20:39;;;;;;;2.77;2.47;;;;;15.20;97286.00;;;;5025609;28;20201;-89
2023/08/10 05:23:30;;;;;;;2.53;1.90;;;;;15.30;97292.00;;;;5018707;28;20202;-87
2023/08/10 05:26:19;;;;;;;2.63;1.93;;;;;15.60;97287.00;;;;5019329;28;20706;-87
2023/08/10 05:29:08;;;;;;;2.60;2.17;;;;;15.20;97290.00;;;;5017237;28;20198;-88
2023/08/10 05:31:57;;;;;;;4.00;2.17;;;;;15.30;97304.00;;;;5006393;28;20206;-89
2023/08/10 05:34:46;;;;;;;3.43;2.63;;;;;15.20;97304.00;;;;5018324;28;20229;-89
2023/08/10 05:37:36;;;;;;;3.23;2.83;;;;;15.40;97302.00;;;;5016132;28;20213;-88
2023/08/10 05:40:27;;;;;;;5.77;3.00;;;;;15.50;97307.00;;;;5023501;28;20201;-88
2023/08/10 05:43:16;;;;;;;4.27;2.67;;;;;15.90;97299.00;;;;5008896;28;20200;-87
2023/08/10 05:46:05;;;;;;;4.10;2.83;;;;;16.20;97296.00;;;;5020510;28;20208;-88
2023/08/10 05:48:54;;;;;;;5.73;3.20;;;;;16.50;97299.00;;;;5016237;28;20202;-87
2023/08/10 05:51:43;;;;;;;2.57;2.30;;;;;16.60;97300.00;;;;5015231;28;20197;-88
2023/08/10 05:54:32;;;;;;;4.50;3.10;;;;;16.70;97298.00;;;;5018048;28;20236;-88
2023/08/10 05:57:22;;;;;;;4.27;2.40;;;;;16.80;97305.00;;;;5011822;28;20201;-88
2023/08/10 06:00:13;;;;;;;3.27;2.33;;;;;16.90;97293.00;;;;5019190;28;20235;-87
2023/08/10 06:03:03;;;;;;;4.77;2.57;;;;;16.90;97290.00;;;;5017372;28;20228;-86
2023/08/10 06:05:52;;;;;;;3.10;2.40;;;;;17.00;97300.00;;;;5015759;28;20228;-86
2023/08/10 06:08:41;;;;;;;3.13;2.60;;;;;16.80;97298.00;;;;4996355;28;20213;-87
2023/08/10 06:11:30;;;;;;;3.43;2.47;;;;;17.00;97299.00;;;;4998218;28;20198;-86
2023/08/10 06:14:28;;;;;;;7.50;3.13;;;;;17.30;97297.00;;;;5005730;28;20638;-88
2023/08/10 06:17:17;;;;;;;4.50;2.97;;;;;17.20;97294.00;;;;5001938;28;20690;-87
2023/08/10 06:20:09;;;;;;;3.57;2.47;;;;;17.10;97280.00;;;;4999094;28;20210;-88
2023/08/10 06:22:59;;;;;;;4.77;2.50;;;;;17.30;97284.00;;;;5005020;28;20233;-86
2023/08/10 06:25:48;;;;;;;3.93;2.67;;;;;17.50;97283.00;;;;5003786;28;20218;-88
2023/08/10 06:28:37;;;;;;;6.75;3.83;;;;;17.10;97286.00;;;;5002539;28;20438;-87
2023/08/10 06:31:28;;;;;;;3.67;2.43;;;;;17.40;97292.00;;;;5002973;28;20349;-88
2023/08/10 06:34:17;;;;;;;3.40;2.70;;;;;17.50;97285.00;;;;5010084;28;20221;-88
2023/08/10 06:37:06;;;;;;;5.43;2.83;;;;;17.60;97291.00;;;;5003886;28;20206;-88
2023/08/10 06:39:56;;;;;;;8.00;2.53;;;;;17.60;97282.00;;;;5005035;28;20607;-88
2023/08/10 06:42:45;;;;;;;3.57;2.47;;;;;18.20;97282.00;;;;5000129;28;20564;-88
2023/08/10 06:45:34;;;;;;;6.00;3.20;;;;;18.50;97287.00;;;;5003526;28;20249;-89
2023/08/10 06:48:25;;;;;;;3.43;2.80;;;;;18.20;97288.00;;;;5006971;28;20198;-88
2023/08/10 06:51:14;;;;;;;4.47;2.90;;;;;17.90;97281.00;;;;5013205;28;20209;-88
2023/08/10 06:54:03;;;;;;;5.80;3.03;;;;;17.70;97280.00;;;;5004213;28;20236;-87
2023/08/10 06:56:52;;;;;;;4.10;2.77;;;;;18.00;97278.00;;;;5015031;28;20212;-88
2023/08/10 06:59:41;;;;;;;3.10;2.10;;;;;18.40;97277.00;;;;5007048;28;20202;-87
2023/08/10 07:02:33;;;;;;;4.57;2.40;;;;;18.50;97283.00;;;;5022292;28;20233;-88
2023/08/10 07:05:25;;;;;;;6.10;2.70;;;;;19.10;97275.00;;;;5023803;28;20232;-84
2023/08/10 07:08:15;;;;;;;2.63;2.43;;;;;19.20;97273.00;;;;5023436;28;20205;-88
2023/08/10 07:11:04;;;;;;;3.87;2.60;;;;;19.40;97278.00;;;;5020023;28;20210;-86
2023/08/10 07:13:53;;;;;;;5.50;2.63;;;;;19.60;97281.00;;;;5005868;28;20577;-87
2023/08/10 07:16:42;;;;;;;3.93;2.40;;;;;19.90;97284.00;;;;5010375;28;20220;-88
2023/08/10 07:19:31;;;;;;;3.53;2.23;;;;;19.70;97284.00;;;;5017025;28;20205;-88
2023/08/10 07:22:22;;;;;;;3.57;2.53;;;;;20.10;97287.00;;;;5022830;28;20226;-87
2023/08/10 07:25:11;;;;;;;3.07;1.90;;;;;20.10;97290.00;;;;5028989;28;20709;-88
2023/08/10 07:28:00;;;;;;;2.93;2.27;;;;;20.30;97285.00;;;;5014269;28;20206;-87
2023/08/10 07:30:49;;;;;;;4.40;1.97;;;;;20.60;97295.00;;;;5023000;28;20208;-88
2023/08/10 07:33:38;;;;;;;1.90;1.70;;;;;20.50;97292.00;;;;5028382;28;20202;-87
2023/08/10 07:36:27;;;;;;;2.13;1.67;;;;;20.70;97285.00;;;;5028173;28;20220;-86
2023/08/10 07:39:18;;;;;;;2.20;1.90;;;;;21.00;97290.00;;;;5029167;28;20205;-87
2023/08/10 07:42:07;;;;;;;4.03;1.87;;;;;21.10;97282.00;;;;5029642;28;20208;-88
2023/08/10 07:44:56;;;;;;;4.10;2.00;;;;;21.60;97289.00;;;;5013248;28;20236;-87
2023/08/10 07:47:45;;;;;;;2.33;1.50;;;;;21.70;97285.00;;;;5024931;28;20209;-87
2023/08/10 07:50:34;;;;;;;3.47;1.83;;;;;21.70;97289.00;;;;5026416;28;20206;-88
2023/08/10 07:53:23;;;;;;;2.77;1.67;;;;;21.60;97302.00;;;;5027771;28;20197;-88
2023/08/10 07:56:14;;;;;;;3.60;1.73;;;;;22.00;97295.00;;;;5028475;28;20585;-87
2023/08/10 07:59:04;;;;;;;2.67;1.60;;;;;22.60;97301.00;;;;5019931;28;20208;-88
2023/08/10 08:01:53;;;;;;;1.93;1.73;;;;;22.70;97302.00;;;;5018116;28;20468;-89
2023/08/10 08:04:42;;;;;;;3.03;1.30;;;;;22.40;97312.00;;;;5028995;28;20224;-87
2023/08/10 08:07:31;;;;;;;2.73;1.73;;;;;22.60;97302.00;;;;5026701;28;20193;-90
2023/08/10 08:10:21;;;;;;;1.93;1.70;;;;;22.40;97306.00;;;;5025417;28;20579;-90
2023/08/10 08:13:12;;;;;;;5.63;2.03;;;;;23.00;97303.00;;;;5029438;28;20204;-89
2023/08/10 08:16:01;;;;;;;1.73;1.53;;;;;23.10;97326.00;;;;5023528;28;20193;-89
2023/08/10 08:18:53;;;;;;;2.60;1.60;;;;;22.60;97317.00;;;;5002343;28;20201;-89
2023/08/10 08:21:42;;;;;;;3.00;1.33;;;;;22.80;97329.00;;;;5028653;28;20205;-89
2023/08/10 08:24:31;;;;;;;2.23;1.40;;;;;22.80;97332.00;;;;5021571;28;20225;-89
2023/08/10 08:27:20;;;;;;;1.53;1.13;;;;;22.80;97328.00;;;;5007588;28;20210;-90
2023/08/10 08:30:12;;;;;;;1.40;1.30;;;;;22.80;97319.00;;;;5014319;28;20204;-90
2023/08/10 08:33:01;;;;;;;1.67;1.57;;;;;22.70;97311.00;;;;5010723;28;20204;-90
2023/08/10 08:35:50;;;;;;;2.07;1.17;;;;;23.00;97313.00;;;;5035274;28;20229;-91
2023/08/10 08:38:39;;;;;;;1.87;1.10;;;;;22.80;97328.00;;;;5017761;28;20435;-90
2023/08/10 08:41:32;;;;;;;3.73;1.20;;;;;22.80;97330.00;;;;5024605;28;20198;-89
2023/08/10 08:44:21;;;;;;;3.33;1.30;;;;;22.50;97334.00;;;;5016967;28;20238;-89
2023/08/10 08:47:12;;;;;;;2.97;1.60;;;;;22.10;97334.00;;;;5024762;28;20201;-90
2023/08/10 08:50:02;;;;;;;2.40;1.63;;;;;22.10;97325.00;;;;5001471;28;20199;-89
2023/08/10 08:52:52;;;;;;;1.93;1.10;;;;;22.30;97338.00;;;;5011366;28;20190;-90
2023/08/10 08:55:42;;;;;;;1.80;1.40;;;;;22.40;97348.00;;;;5009725;28;20226;-89
2023/08/10 08:58:31;;;;;;;1.90;1.40;;;;;22.20;97340.00;;;;5009323;28;20221;-90
2023/08/10 09:01:21;;;;;;;2.43;1.70;;;;;22.20;97347.00;;;;5017715;28;20686;-89
2023/08/10 09:04:11;;;;;;;1.17;1.07;;;;;22.10;97350.00;;;;5013427;28;20226;-90
2023/08/10 09:07:01;;;;;;;1.60;1.50;;;;;22.10;97351.00;;;;5011137;28;20209;-90
2023/08/10 09:09:50;;;;;;;2.60;1.53;;;;;22.20;97346.00;;;;5004810;28;20667;-91
2023/08/10 09:12:40;;;;;;;2.13;1.47;;;;;22.00;97353.00;;;;5013665;28;20616;-90
2023/08/10 09:15:29;;;;;;;3.87;1.40;;;;;21.70;97360.00;;;;5005299;28;20242;-92
2023/08/10 09:18:21;;;;;;;4.23;1.63;;;;;22.00;97342.00;;;;5009770;28;20217;-91
2023/08/10 09:21:17;;;;;;;1.40;1.30;;;;;22.60;97339.00;;;;4997141;28;20213;-91
2023/08/10 09:24:10;;;;;;;1.63;1.53;;;;;23.20;97343.00;;;;5003071;28;20229;-92
2023/08/10 09:27:02;;;;;;;3.67;1.77;;;;;23.60;97345.00;;;;5004130;28;20320;-90
2023/08/10 09:29:54;;;;;;;1.60;1.47;;;;;23.50;97335.00;;;;5006969;28;20217;-90
2023/08/10 09:32:43;;;;;;;2.43;1.90;;;;;23.70;97341.00;;;;5008644;28;20194;-89
2023/08/10 09:35:33;;;;;;;4.17;1.67;;;;;24.10;97344.00;;;;4994210;28;20245;-91
2023/08/10 09:38:23;;;;;;;2.53;1.40;;;;;24.40;97344.00;;;;5006478;28;20667;-90
2023/08/10 09:41:13;;;;;;;3.07;1.60;;;;;24.70;97343.00;;;;5015358;28;20336;-90
2023/08/10 09:44:05;;;;;;;2.27;1.70;;;;;24.70;97337.00;;;;5018735;28;20221;-91
2023/08/10 09:46:58;;;;;;;3.63;1.60;;;;;25.00;97340.00;;;;5018162;28;20214;-91
2023/08/10 09:49:56;;;;;;;1.80;1.50;;;;;25.20;97336.00;;;;4999768;28;20393;-91
2023/08/10 09:52:47;;;;;;;3.63;2.67;;;;;25.40;97335.00;;;;5006270;28;20671;-91
2023/08/10 09:55:38;;;;;;;1.97;1.77;;;;;26.10;97334.00;;;;5009665;28;20213;-92
2023/08/10 09:58:27;;;;;;;2.07;1.53;;;;;26.00;97323.00;;;;5012026;28;20209;-92
2023/08/10 10:01:17;;;;;;;1.73;1.50;;;;;26.40;97319.00;;;;5027677;28;20204;-93
2023/08/10 10:04:06;;;;;;;2.90;1.80;;;;;25.80;97325.00;;;;5014044;28;20232;-91
2023/08/10 10:06:56;;;;;;;4.60;1.77;;;;;25.10;97303.00;;;;5022232;28;20205;-87
2023/08/10 10:09:46;;;;;;;3.30;1.43;;;;;26.10;97316.00;;;;5020703;28;20205;-88
2023/08/10 10:12:38;;;;;;;3.33;1.87;;;;;25.60;97306.00;;;;5017586;28;20205;-93
2023/08/10 10:15:30;;;;;;;1.40;1.30;;;;;26.00;97294.00;;;;5029087;28;20213;-92
2023/08/10 10:18:20;;;;;;;1.40;1.23;;;;;26.70;97296.00;;;;5020164;28;20202;-92
2023/08/10 10:21:09;;;;;;;1.63;1.30;;;;;25.60;97298.00;;;;5018494;28;20214;-89
2023/08/10 10:24:03;;;;;;;2.63;1.33;;;;;26.40;97301.00;;;;5020493;28;20217;-92
2023/08/10 10:27:05;;;;;;;2.03;1.30;;;;;26.80;97285.00;;;;5013394;28;20205;-89
2023/08/10 10:29:59;;;;;;;1.53;1.00;;;;;27.50;97280.00;;;;5020946;28;20682;-92
2023/08/10 10:32:49;;;;;;;1.00;0.97;;;;;27.70;97286.00;;;;5027125;28;20193;-91
2023/08/10 10:35:38;;;;;;;2.13;1.93;;;;;28.30;97289.00;;;;5026683;28;20284;-92
2023/08/10 10:38:27;;;;;;;2.87;1.77;;;;;28.50;97270.00;;;;5020647;28;20213;-90
2023/08/10 10:41:18;;;;;;;1.47;1.30;;;;;28.50;97283.00;;;;5027031;28;20217;-92
2023/08/10 10:44:07;;;;;;;1.50;0.87;;;;;28.20;97261.00;;;;5018242;28;20223;-90
2023/08/10 10:47:00;;;;;;;2.10;1.40;;;;;28.90;97286.00;;;;5011078;28;20208;-91
2023/08/10 10:49:55;;;;;;;2.97;1.00;;;;;28.70;97253.00;;;;5023441;28;20686;-91
2023/08/10 10:52:55;;;;;;;0.60;0.60;;;;;28.80;97240.00;;;;5031081;28;20205;-92
2023/08/10 10:55:48;;;;;;;1.17;0.93;;;;;28.90;97243.00;;;;5030162;28;20229;-90
2023/08/10 10:58:37;;;;;;;1.33;0.90;;;;;28.40;97223.00;;;;5025135;28;20203;-91
2023/08/10 11:01:26;;;;;;;2.63;1.33;;;;;28.20;97272.00;;;;5030523;28;20206;-92
2023/08/10 11:04:17;;;;;;;1.20;1.13;;;;;27.40;97279.00;;;;5023641;28;20737;-91
2023/08/10 11:07:06;;;;;;;1.43;0.90;;;;;27.10;97280.00;;;;5016566;28;20197;-91
2023/08/10 11:09:55;;;;;;;1.67;1.03;;;;;27.00;97257.00;;;;5023101;28;20207;-92
2023/08/10 11:12:45;;;;;;;0.83;0.83;;;;;28.00;97214.00;;;;5024960;28;20219;-92
2023/08/10 11:15:36;;;;;;;1.00;0.90;;;;;29.30;97222.00;;;;5028231;28;20224;-91
2023/08/10 11:18:27;;;;;;;1.00;0.83;;;;;28.60;97217.00;;;;5024736;28;20262;-90
2023/08/10 11:21:18;;;;;;;1.20;0.90;;;;;28.70;97212.00;;;;5024632;28;20210;-90
2023/08/10 11:24:08;;;;;;;0.97;0.87;;;;;29.20;97203.00;;;;5023766;28;20246;-91
2023/08/10 11:26:58;;;;;;;1.27;1.03;;;;;27.90;97260.00;;;;5031577;28;20200;-89
2023/08/10 11:29:49;;;;;;;0.70;0.70;;;;;26.30;97198.00;;;;5018603;28;20198;-88
2023/08/10 11:32:41;;;;;;;0.90;0.80;;;;;27.50;97204.00;;;;5029310;28;20205;-88
2023/08/10 11:35:30;;;;;;;1.47;1.20;;;;;26.60;97270.00;;;;5028993;28;20707;-88
2023/08/10 11:38:21;;;;;;;0.93;0.80;;;;;26.40;97195.00;;;;5022421;28;20213;-89
2023/08/10 11:41:10;;;;;;;1.47;1.03;;;;;26.30;97259.00;;;;5031075;28;20207;-88
2023/08/10 11:43:59;;;;;;;1.97;1.17;;;;;26.90;97189.00;;;;5004681;28;20223;-89
2023/08/10 11:46:50;;;;;;;1.30;1.10;;;;;26.50;97182.00;;;;5016499;28;20198;-88
2023/08/10 11:49:39;;;;;;;3.00;1.37;;;;;26.80;97240.00;;;;5022731;28;20205;-88
2023/08/10 11:52:28;;;;;;;1.27;1.17;;;;;26.70;97189.00;;;;5028579;28;20213;-87
2023/08/10 11:55:20;;;;;;;1.67;1.07;;;;;29.00;97185.00;;;;5024429;28;20211;-88
2023/08/10 11:58:10;;;;;;;1.83;1.40;;;;;29.30;97187.00;;;;5026446;28;20207;-88
2023/08/10 12:01:04;;;;;;;1.30;1.20;;;;;29.50;97188.00;;;;5029001;28;20205;-89
2023/08/10 12:03:54;;;;;;;1.50;1.20;;;;;28.50;97177.00;;;;5025284;28;20699;-88
2023/08/10 12:06:45;;;;;;;1.60;1.30;;;;;27.80;97168.00;;;;5014793;28;20561;-90
2023/08/10 12:09:35;;;;;;;3.47;1.40;;;;;29.30;97182.00;;;;5029781;28;20670;-88
2023/08/10 12:12:26;;;;;;;2.43;1.47;;;;;30.40;97171.00;;;;5013874;28;20213;-88
2023/08/10 12:15:16;;;;;;;1.53;1.43;;;;;31.40;97159.00;;;;5025070;28;20237;-89
2023/08/10 12:18:06;;;;;;;3.73;2.00;;;;;31.40;97208.00;;;;5020136;28;20202;-88
2023/08/10 12:20:56;;;;;;;1.90;1.20;;;;;32.10;97161.00;;;;5017114;28;20243;-89
2023/08/10 12:23:45;;;;;;;1.98;1.20;;;;;32.20;97161.00;;;;5022708;28;20206;-88
2023/08/10 12:26:34;;;;;;;1.67;1.17;;;;;31.70;97230.00;;;;5029193;28;20225;-90
2023/08/10 12:29:24;;;;;;;2.17;1.25;;;;;29.50;97233.00;;;;5021936;28;20211;-90
2023/08/10 12:32:13;;;;;;;1.40;1.25;;;;;28.00;97230.00;;;;5029460;28;20208;-89
2023/08/10 12:35:03;;;;;;;1.52;1.20;;;;;28.60;97181.00;;;;5021268;28;20226;-88
2023/08/10 12:37:53;;;;;;;2.60;1.43;;;;;29.10;97171.00;;;;5016476;28;20208;-90
2023/08/10 12:40:42;;;;;;;1.70;1.50;;;;;32.00;97149.00;;;;5021914;28;20201;-91
2023/08/10 12:43:31;;;;;;;3.15;1.67;;;;;31.20;97219.00;;;;5025909;28;20198;-89
2023/08/10 12:46:22;;;;;;;1.77;1.30;;;;;31.40;97198.00;;;;5025717;28;20229;-90
2023/08/10 12:49:11;;;;;;;1.77;1.67;;;;;31.40;97157.00;;;;5022727;28;20675;-89
2023/08/10 12:52:00;;;;;;;1.40;1.30;;;;;32.50;97144.00;;;;5023296;28;20205;-88
2023/08/10 12:54:49;;;;;;;1.93;1.23;;;;;32.10;97149.00;;;;5026513;28;20226;-89
2023/08/10 12:57:39;;;;;;;1.52;1.38;;;;;32.60;97147.00;;;;5028350;28;20206;-89
2023/08/10 13:00:28;;;;;;;2.47;1.15;;;;;33.40;97155.00;;;;5028563;28;20207;-89
2023/08/10 13:03:18;;;;;;;2.40;1.38;;;;;31.90;97144.00;;;;5025397;28;20204;-89
2023/08/10 13:06:07;;;;;;;1.85;1.52;;;;;30.10;97129.00;;;;5016354;28;20548;-89
2023/08/10 13:08:57;;;;;;;1.45;1.35;;;;;29.60;97166.00;;;;5017619;28;20206;-89
2023/08/10 13:11:46;;;;;;;1.85;1.60;;;;;31.80;97137.00;;;;5027502;28;20206;-88
2023/08/10 13:14:35;;;;;;;5.83;1.70;;;;;32.50;97146.00;;;;5023238;28;20311;-89
2023/08/10 13:17:26;;;;;;;4.20;1.60;;;;;32.40;97148.00;;;;5028152;28;20414;-89
2023/08/10 13:20:16;;;;;;;1.88;1.70;;;;;32.60;97138.00;;;;5029048;28;20200;-89
2023/08/10 13:23:05;;;;;;;2.13;1.80;;;;;32.50;97127.00;;;;5015779;28;20689;-89
2023/08/10 13:25:54;;;;;;;1.10;1.00;;;;;32.90;97204.00;;;;5016140;28;20217;-89
2023/08/10 13:28:44;;;;;;;1.77;1.20;;;;;32.40;97136.00;;;;5013542;28;20219;-89
2023/08/10 13:31:34;;;;;;;2.08;1.35;;;;;34.10;97134.00;;;;5027772;28;20204;-89
2023/08/10 13:34:23;;;;;;;2.03;1.27;;;;;32.30;97202.00;;;;5024535;28;20224;-88
2023/08/10 13:37:14;;;;;;;2.85;1.40;;;;;31.80;97200.00;;;;5028814;28;20216;-87
2023/08/10 13:40:04;;;;;;;3.30;1.80;;;;;33.70;97135.00;;;;5023002;28;20201;-88
2023/08/10 13:42:53;;;;;;;3.47;1.90;;;;;33.40;97209.00;;;;5027894;28;20197;-89
2023/08/10 13:45:42;;;;;;;1.30;1.20;;;;;31.40;97208.00;;;;5019836;28;20217;-87
2023/08/10 13:48:33;;;;;;;1.80;1.50;;;;;32.70;97132.00;;;;5012857;28;20205;-87
2023/08/10 13:51:22;;;;;;;4.50;1.90;;;;;33.80;97145.00;;;;5027488;28;20208;-88
2023/08/10 13:54:13;;;;;;;2.15;1.60;;;;;34.30;97142.00;;;;5025099;28;20224;-87
2023/08/10 13:57:04;;;;;;;1.60;1.25;;;;;34.80;97143.00;;;;5028531;28;20217;-87
2023/08/10 13:59:54;;;;;;;3.67;1.92;;;;;33.00;97164.00;;;;5016796;28;20212;-87
2023/08/10 14:02:43;;;;;;;1.88;1.77;;;;;33.20;97140.00;;;;5019623;28;20582;-87
2023/08/10 14:05:33;;;;;;;1.92;1.60;;;;;34.10;97203.00;;;;5025108;28;20511;-87
2023/08/10 14:08:22;;;;;;;3.60;1.60;;;;;33.00;97206.00;;;;5011952;28;20197;-90
2023/08/10 14:11:13;;;;;;;1.47;1.37;;;;;33.20;97210.00;;;;5016798;28;20197;-88